Time;durP1;ratioP1;P1;durP2;ratioP2;P2;SDS_P1;SDS_P2;PMS_P1;PMS_P2;Temp;Humidity;BMP_temperature;BMP_pressure;BME280_temperature;BME280_humidity;BME280_pressure;Samples;Min_cycle;Max_cycle;Signal;HPM_P1;HPM_P2
2023/05/10 00:00:55;;;;;;;5.97;4.80;;;;;;;;;;5059307;27;20434;-49
2023/05/10 00:03:21;;;;;;;6.63;5.17;;;;;;;;;;5061145;27;20423;-49
2023/05/10 00:05:47;;;;;;;10.80;5.47;;;;;;;;;;5057892;27;20425;-48
2023/05/10 00:08:13;;;;;;;6.77;5.20;;;;;;;;;;5057170;28;20433;-47
2023/05/10 00:10:40;;;;;;;5.27;4.60;;;;;;;;;;5061539;27;20445;-48
2023/05/10 00:13:06;;;;;;;8.23;6.47;;;;;;;;;;5060065;28;20440;-48
2023/05/10 00:15:32;;;;;;;7.63;5.83;;;;;;;;;;5048693;27;20853;-48
2023/05/10 00:17:58;;;;;;;6.63;5.40;;;;;;;;;;5049699;28;20455;-49
2023/05/10 00:20:24;;;;;;;6.50;4.17;;;;;;;;;;5049894;28;20460;-49
2023/05/10 00:22:50;;;;;;;10.17;5.27;;;;;;;;;;5050101;28;20787;-47
2023/05/10 00:25:16;;;;;;;7.53;5.77;;;;;;;;;;5052791;28;20432;-47
2023/05/10 00:27:42;;;;;;;8.20;5.83;;;;;;;;;;5052383;28;20418;-47
2023/05/10 00:30:08;;;;;;;6.87;5.37;;;;;;;;;;5052642;28;20435;-46
2023/05/10 00:32:34;;;;;;;12.73;5.97;;;;;;;;;;5052456;28;20456;-48
2023/05/10 00:35:00;;;;;;;7.37;5.40;;;;;;;;;;5052442;28;20445;-48
2023/05/10 00:37:26;;;;;;;6.90;5.27;;;;;;;;;;5052630;28;20767;-48
2023/05/10 00:39:53;;;;;;;8.80;4.73;;;;;;;;;;5050618;28;20427;-48
2023/05/10 00:42:19;;;;;;;10.03;7.73;;;;;;;;;;5051902;28;20902;-48
2023/05/10 00:44:44;;;;;;;6.07;4.97;;;;;;;;;;5053125;28;20472;-46
2023/05/10 00:47:11;;;;;;;7.13;5.37;;;;;;;;;;5052710;28;21024;-47
2023/05/10 00:49:37;;;;;;;9.07;5.63;;;;;;;;;;5052568;28;20496;-47
2023/05/10 00:52:03;;;;;;;11.00;7.67;;;;;;;;;;5050642;28;20412;-47
2023/05/10 00:54:30;;;;;;;12.97;6.20;;;;;;;;;;5054069;28;20422;-48
2023/05/10 00:56:57;;;;;;;13.77;6.00;;;;;;;;;;5063455;27;20896;-47
2023/05/10 00:59:23;;;;;;;6.63;5.43;;;;;;;;;;5062168;28;20404;-49
2023/05/10 01:01:51;;;;;;;8.60;6.83;;;;;;;;;;5063609;27;20955;-46
2023/05/10 01:04:17;;;;;;;9.30;6.63;;;;;;;;;;5057425;28;20405;-48
2023/05/10 01:06:43;;;;;;;9.73;7.00;;;;;;;;;;5056278;27;20415;-48
2023/05/10 01:09:10;;;;;;;11.70;8.10;;;;;;;;;;5057653;28;20449;-46
2023/05/10 01:11:37;;;;;;;12.87;7.90;;;;;;;;;;5058670;27;20449;-47
2023/05/10 01:14:03;;;;;;;10.60;7.40;;;;;;;;;;5060616;28;20435;-45
2023/05/10 01:16:32;;;;;;;9.47;6.83;;;;;;;;;;5061095;27;20823;-44
2023/05/10 01:18:58;;;;;;;10.20;6.90;;;;;;;;;;5061215;28;20417;-44
2023/05/10 01:21:24;;;;;;;10.70;6.87;;;;;;;;;;5056353;28;20809;-44
2023/05/10 01:24:05;;;;;;;12.87;7.63;;;;;;;;;;5061434;27;20415;-45
2023/05/10 01:26:30;;;;;;;11.47;7.87;;;;;;;;;;5062243;28;20416;-44
2023/05/10 01:29:05;;;;;;;12.63;8.47;;;;;;;;;;5058175;27;20426;-45
2023/05/10 01:31:41;;;;;;;13.20;8.40;;;;;;;;;;5058782;27;20991;-44
2023/05/10 01:34:08;;;;;;;20.83;9.07;;;;;;;;;;5058305;28;20429;-44
2023/05/10 01:36:37;;;;;;;13.37;7.83;;;;;;;;;;5058429;28;20427;-44
2023/05/10 01:39:09;;;;;;;12.90;8.93;;;;;;;;;;5060063;28;20446;-45
2023/05/10 01:41:54;;;;;;;8.30;6.57;;;;;;;;;;5057805;28;20448;-44
2023/05/10 01:44:40;;;;;;;15.03;8.23;;;;;;;;;;5055289;28;20444;-44
2023/05/10 01:47:10;;;;;;;18.00;8.30;;;;;;;;;;5061293;28;20380;-44
2023/05/10 01:49:40;;;;;;;10.93;7.30;;;;;;;;;;5061609;27;20411;-44
2023/05/10 01:52:09;;;;;;;12.27;8.23;;;;;;;;;;5058987;27;20909;-45
2023/05/10 01:54:36;;;;;;;11.70;7.10;;;;;;;;;;5061957;28;20530;-45
2023/05/10 01:57:04;;;;;;;10.20;7.90;;;;;;;;;;5057891;27;20409;-44
2023/05/10 01:59:40;;;;;;;14.70;7.97;;;;;;;;;;5058903;27;20408;-44
2023/05/10 02:02:06;;;;;;;13.57;8.00;;;;;;;;;;5059237;28;20414;-44
2023/05/10 02:04:33;;;;;;;8.40;7.13;;;;;;;;;;5057649;28;20491;-47
2023/05/10 02:06:59;;;;;;;10.80;7.90;;;;;;;;;;5058984;28;20834;-44
2023/05/10 02:09:27;;;;;;;12.00;7.53;;;;;;;;;;5061248;27;20923;-45
2023/05/10 02:11:53;;;;;;;10.17;8.07;;;;;;;;;;5060640;27;20450;-43
2023/05/10 02:14:20;;;;;;;12.03;7.87;;;;;;;;;;5055138;28;20436;-46
2023/05/10 02:16:46;;;;;;;11.07;8.20;;;;;;;;;;5054830;27;20418;-45
2023/05/10 02:19:14;;;;;;;11.00;7.60;;;;;;;;;;5061209;28;20418;-46
2023/05/10 02:21:40;;;;;;;12.63;8.60;;;;;;;;;;5060493;27;20491;-44
2023/05/10 02:24:07;;;;;;;19.30;9.47;;;;;;;;;;5059574;28;20454;-45
2023/05/10 02:26:33;;;;;;;12.20;8.63;;;;;;;;;;5059820;28;20414;-45
2023/05/10 02:29:03;;;;;;;13.13;8.97;;;;;;;;;;5060573;28;20423;-45
2023/05/10 02:31:29;;;;;;;19.43;9.07;;;;;;;;;;5056305;28;20457;-44
2023/05/10 02:33:55;;;;;;;15.33;9.60;;;;;;;;;;5059521;27;20434;-45
2023/05/10 02:36:22;;;;;;;12.97;8.83;;;;;;;;;;5060167;28;20466;-47
2023/05/10 02:38:49;;;;;;;20.03;12.03;;;;;;;;;;5056472;27;20804;-45
2023/05/10 02:41:15;;;;;;;12.70;9.27;;;;;;;;;;5056741;28;20430;-44
2023/05/10 02:43:42;;;;;;;15.60;10.27;;;;;;;;;;5057043;28;20417;-44
2023/05/10 02:46:08;;;;;;;15.27;9.83;;;;;;;;;;5058704;28;20894;-44
2023/05/10 02:48:34;;;;;;;19.43;11.57;;;;;;;;;;5054985;28;20422;-44
2023/05/10 02:51:05;;;;;;;13.20;10.00;;;;;;;;;;5063564;28;20968;-44
2023/05/10 02:53:33;;;;;;;19.73;10.80;;;;;;;;;;5062627;28;20402;-47
2023/05/10 02:56:01;;;;;;;16.10;10.23;;;;;;;;;;5069195;28;20457;-46
2023/05/10 02:58:27;;;;;;;16.00;11.03;;;;;;;;;;5068864;28;20405;-45
2023/05/10 03:00:53;;;;;;;21.37;11.70;;;;;;;;;;5068831;28;20874;-45
2023/05/10 03:03:20;;;;;;;19.13;10.90;;;;;;;;;;5068455;28;20410;-45
2023/05/10 03:05:46;;;;;;;18.40;11.10;;;;;;;;;;5068841;28;20402;-45
2023/05/10 03:08:12;;;;;;;18.67;11.80;;;;;;;;;;5065068;28;20481;-44
2023/05/10 03:10:41;;;;;;;21.23;9.63;;;;;;;;;;5044032;28;20541;-45
2023/05/10 03:13:25;;;;;;;11.57;9.27;;;;;;;;;;5056040;28;20434;-45
2023/05/10 03:15:51;;;;;;;15.33;9.10;;;;;;;;;;5061588;28;21032;-45
2023/05/10 03:18:24;;;;;;;16.07;9.73;;;;;;;;;;5055777;28;20493;-47
2023/05/10 03:20:51;;;;;;;17.03;10.27;;;;;;;;;;5053366;27;20475;-45
2023/05/10 03:23:19;;;;;;;20.07;9.83;;;;;;;;;;5056094;28;20413;-45
2023/05/10 03:25:47;;;;;;;18.37;10.93;;;;;;;;;;5056657;28;20425;-44
2023/05/10 03:28:15;;;;;;;15.73;10.47;;;;;;;;;;5052567;28;20412;-44
2023/05/10 03:30:41;;;;;;;17.77;10.87;;;;;;;;;;5058276;28;20786;-45
2023/05/10 03:33:08;;;;;;;20.57;11.63;;;;;;;;;;5059586;28;20421;-45
2023/05/10 03:35:34;;;;;;;17.63;10.83;;;;;;;;;;5056341;28;20442;-45
2023/05/10 03:38:00;;;;;;;18.30;10.93;;;;;;;;;;5051842;28;20420;-45
2023/05/10 03:40:28;;;;;;;14.40;9.50;;;;;;;;;;5060174;28;20465;-45
2023/05/10 03:42:54;;;;;;;16.57;10.10;;;;;;;;;;5055723;28;20434;-45
2023/05/10 03:45:20;;;;;;;14.63;10.20;;;;;;;;;;5058972;28;20433;-45
2023/05/10 03:47:46;;;;;;;15.20;9.70;;;;;;;;;;5056530;28;20426;-44
2023/05/10 03:50:12;;;;;;;18.13;11.93;;;;;;;;;;5058122;28;20412;-46
2023/05/10 03:52:41;;;;;;;18.53;12.60;;;;;;;;;;5054877;28;20422;-46
2023/05/10 03:55:07;;;;;;;18.30;10.80;;;;;;;;;;5057013;28;20463;-45
2023/05/10 03:57:33;;;;;;;15.73;11.00;;;;;;;;;;5060004;28;20419;-45
2023/05/10 03:59:59;;;;;;;15.77;9.80;;;;;;;;;;5058505;28;20898;-45
2023/05/10 04:02:25;;;;;;;21.63;12.23;;;;;;;;;;5059928;27;20813;-46
2023/05/10 04:04:51;;;;;;;17.53;10.77;;;;;;;;;;5064927;28;20418;-48
2023/05/10 04:07:18;;;;;;;17.20;10.47;;;;;;;;;;5059767;28;20397;-48
2023/05/10 04:09:43;;;;;;;16.60;9.70;;;;;;;;;;5057513;27;20494;-48
2023/05/10 04:12:09;;;;;;;18.73;11.57;;;;;;;;;;5064739;28;20845;-45
2023/05/10 04:14:35;;;;;;;21.90;12.43;;;;;;;;;;5061099;28;20420;-44
2023/05/10 04:17:01;;;;;;;23.63;12.97;;;;;;;;;;5056741;28;20757;-44
2023/05/10 04:19:31;;;;;;;18.70;11.77;;;;;;;;;;5057896;28;20413;-44
2023/05/10 04:21:57;;;;;;;30.70;13.57;;;;;;;;;;5060643;28;20430;-48
2023/05/10 04:24:23;;;;;;;24.53;14.87;;;;;;;;;;5063045;28;20403;-45
2023/05/10 04:26:49;;;;;;;25.43;15.80;;;;;;;;;;5059764;28;20417;-48
2023/05/10 04:29:15;;;;;;;22.77;13.97;;;;;;;;;;5062777;28;20449;-44
2023/05/10 04:31:41;;;;;;;24.40;14.33;;;;;;;;;;5060356;28;20455;-45
2023/05/10 04:34:07;;;;;;;29.07;14.73;;;;;;;;;;5054457;28;20500;-45
2023/05/10 04:36:35;;;;;;;36.00;16.53;;;;;;;;;;5062521;28;20463;-45
2023/05/10 04:39:02;;;;;;;32.47;15.30;;;;;;;;;;5059648;28;20410;-44
2023/05/10 04:41:28;;;;;;;28.20;15.40;;;;;;;;;;5058617;28;20455;-44
2023/05/10 04:43:54;;;;;;;26.40;15.00;;;;;;;;;;5059721;28;20422;-45
2023/05/10 04:46:20;;;;;;;25.83;14.00;;;;;;;;;;5060188;28;20429;-44
2023/05/10 04:48:46;;;;;;;24.33;14.27;;;;;;;;;;5059195;28;20758;-45
2023/05/10 04:51:12;;;;;;;26.23;15.37;;;;;;;;;;5059139;28;20406;-45
2023/05/10 04:53:38;;;;;;;28.80;15.13;;;;;;;;;;5062516;28;20468;-45
2023/05/10 04:56:04;;;;;;;32.90;16.20;;;;;;;;;;5058019;28;20489;-44
2023/05/10 04:58:30;;;;;;;27.33;14.67;;;;;;;;;;5058619;28;20439;-45
2023/05/10 05:00:56;;;;;;;26.23;14.00;;;;;;;;;;5059446;28;20890;-45
2023/05/10 05:03:22;;;;;;;27.90;14.93;;;;;;;;;;5058767;28;20499;-48
2023/05/10 05:05:48;;;;;;;21.37;12.97;;;;;;;;;;5056856;28;20424;-44
2023/05/10 05:08:14;;;;;;;28.57;15.77;;;;;;;;;;5058423;28;20498;-44
2023/05/10 05:10:42;;;;;;;29.47;15.63;;;;;;;;;;5064732;28;20451;-44
2023/05/10 05:13:08;;;;;;;31.63;16.17;;;;;;;;;;5056716;28;20427;-45
2023/05/10 05:15:34;;;;;;;29.10;16.53;;;;;;;;;;5050616;28;20788;-45
2023/05/10 05:18:00;;;;;;;26.50;15.50;;;;;;;;;;5050500;28;20400;-45
2023/05/10 05:20:26;;;;;;;34.40;15.63;;;;;;;;;;5050105;28;20434;-47
2023/05/10 05:22:52;;;;;;;31.37;15.67;;;;;;;;;;5050188;28;20396;-47
2023/05/10 05:25:18;;;;;;;31.87;16.00;;;;;;;;;;5050397;28;20415;-45
2023/05/10 05:27:44;;;;;;;37.10;16.73;;;;;;;;;;5050404;28;20794;-44
2023/05/10 05:30:10;;;;;;;30.20;15.20;;;;;;;;;;5050406;28;20435;-44
2023/05/10 05:32:38;;;;;;;37.27;18.73;;;;;;;;;;5050116;28;20480;-45
2023/05/10 05:35:04;;;;;;;39.57;19.43;;;;;;;;;;5050065;28;20503;-46
2023/05/10 05:37:30;;;;;;;34.30;18.03;;;;;;;;;;5050171;28;20487;-46
2023/05/10 05:39:56;;;;;;;37.23;17.17;;;;;;;;;;5048061;28;20524;-45
2023/05/10 05:42:22;;;;;;;37.37;21.07;;;;;;;;;;5049287;28;20457;-47
2023/05/10 05:44:48;;;;;;;35.67;18.77;;;;;;;;;;5050088;28;20956;-45
2023/05/10 05:47:14;;;;;;;33.83;18.53;;;;;;;;;;5050097;28;20489;-46
2023/05/10 05:49:40;;;;;;;36.43;18.33;;;;;;;;;;5049861;28;20892;-47
2023/05/10 05:52:06;;;;;;;36.27;17.50;;;;;;;;;;5049927;28;20420;-44
2023/05/10 05:54:32;;;;;;;40.40;19.33;;;;;;;;;;5049673;28;20427;-44
2023/05/10 05:56:58;;;;;;;37.63;20.50;;;;;;;;;;5049926;28;20405;-44
2023/05/10 05:59:24;;;;;;;36.17;18.70;;;;;;;;;;5049936;28;20394;-45
2023/05/10 06:01:50;;;;;;;36.17;20.17;;;;;;;;;;5049895;28;20408;-44
2023/05/10 06:04:17;;;;;;;47.50;20.10;;;;;;;;;;5049488;28;20417;-46
2023/05/10 06:06:44;;;;;;;34.90;19.37;;;;;;;;;;5049758;28;20417;-45
2023/05/10 06:09:10;;;;;;;40.73;19.70;;;;;;;;;;5049828;28;20419;-45
2023/05/10 06:11:36;;;;;;;44.50;22.83;;;;;;;;;;5046607;27;20928;-44
2023/05/10 06:14:04;;;;;;;40.43;20.73;;;;;;;;;;5033669;28;20533;-44
2023/05/10 06:16:30;;;;;;;45.80;21.60;;;;;;;;;;5029802;28;20465;-44
2023/05/10 06:18:56;;;;;;;38.07;21.30;;;;;;;;;;5029657;28;20808;-45
2023/05/10 06:21:22;;;;;;;36.87;20.63;;;;;;;;;;5028950;28;20429;-45
2023/05/10 06:23:48;;;;;;;46.60;22.13;;;;;;;;;;5029797;28;20489;-45
2023/05/10 06:26:14;;;;;;;44.70;21.13;;;;;;;;;;5030203;28;20409;-46
2023/05/10 06:28:40;;;;;;;42.63;22.30;;;;;;;;;;5029598;28;20962;-45
2023/05/10 06:31:06;;;;;;;44.00;21.67;;;;;;;;;;5029615;28;20438;-45
2023/05/10 06:33:32;;;;;;;41.20;19.53;;;;;;;;;;5029208;28;20404;-46
2023/05/10 06:35:58;;;;;;;45.63;23.30;;;;;;;;;;5029717;28;20489;-47
2023/05/10 06:38:24;;;;;;;44.40;22.83;;;;;;;;;;5029564;28;20400;-46
2023/05/10 06:40:51;;;;;;;39.70;22.50;;;;;;;;;;5034351;28;20460;-45
2023/05/10 06:43:17;;;;;;;45.60;21.10;;;;;;;;;;5047969;28;20431;-45
2023/05/10 06:45:43;;;;;;;46.30;23.63;;;;;;;;;;5048500;28;20372;-44
2023/05/10 06:48:09;;;;;;;38.73;20.87;;;;;;;;;;5048420;28;20799;-45
2023/05/10 06:50:35;;;;;;;41.70;20.57;;;;;;;;;;5048840;28;20404;-45
2023/05/10 06:53:01;;;;;;;37.20;21.50;;;;;;;;;;5046509;28;20463;-45
2023/05/10 06:55:27;;;;;;;37.53;22.40;;;;;;;;;;5047959;28;20431;-45
2023/05/10 06:57:54;;;;;;;40.00;23.10;;;;;;;;;;5048436;28;20747;-44
2023/05/10 07:00:20;;;;;;;43.57;22.90;;;;;;;;;;5048481;28;20944;-45
2023/05/10 07:02:46;;;;;;;38.53;21.67;;;;;;;;;;5046382;28;20766;-45
2023/05/10 07:05:13;;;;;;;40.77;23.67;;;;;;;;;;5046073;28;20441;-45
2023/05/10 07:07:40;;;;;;;35.70;21.60;;;;;;;;;;5046186;28;20394;-45
2023/05/10 07:10:07;;;;;;;36.40;20.60;;;;;;;;;;5050153;28;20426;-45
2023/05/10 07:12:33;;;;;;;41.13;24.93;;;;;;;;;;5052543;28;20414;-45
2023/05/10 07:14:59;;;;;;;33.23;20.70;;;;;;;;;;5061874;28;20598;-45
2023/05/10 07:17:25;;;;;;;48.73;21.33;;;;;;;;;;5056521;28;20460;-45
2023/05/10 07:19:53;;;;;;;37.20;21.87;;;;;;;;;;5053780;28;20874;-46
2023/05/10 07:22:19;;;;;;;36.17;21.70;;;;;;;;;;5056205;28;20386;-46
2023/05/10 07:24:45;;;;;;;39.57;21.80;;;;;;;;;;5050070;28;20914;-47
2023/05/10 07:27:11;;;;;;;35.67;20.33;;;;;;;;;;5059009;28;20399;-47
2023/05/10 07:29:37;;;;;;;28.60;18.57;;;;;;;;;;5058600;28;20869;-47
2023/05/10 07:32:03;;;;;;;39.50;23.33;;;;;;;;;;5058881;28;20393;-48
2023/05/10 07:34:30;;;;;;;32.50;17.93;;;;;;;;;;5059680;28;20421;-49
2023/05/10 07:36:56;;;;;;;31.27;17.40;;;;;;;;;;5055816;28;20502;-47
2023/05/10 07:39:22;;;;;;;31.67;19.07;;;;;;;;;;5064238;28;20419;-48
2023/05/10 07:41:48;;;;;;;30.73;17.80;;;;;;;;;;5058919;28;20419;-49
2023/05/10 07:44:14;;;;;;;38.80;19.90;;;;;;;;;;5065475;27;20453;-48
2023/05/10 07:46:40;;;;;;;35.93;21.73;;;;;;;;;;5059885;28;20413;-49
2023/05/10 07:49:06;;;;;;;39.23;18.90;;;;;;;;;;5062038;28;20548;-48
2023/05/10 07:51:32;;;;;;;38.30;19.53;;;;;;;;;;5058218;28;20389;-49
2023/05/10 07:53:58;;;;;;;35.73;21.73;;;;;;;;;;5062051;28;20465;-49
2023/05/10 07:56:27;;;;;;;32.37;18.80;;;;;;;;;;5061947;28;20828;-49
2023/05/10 07:58:53;;;;;;;35.47;21.23;;;;;;;;;;5058723;28;20751;-49
2023/05/10 08:01:19;;;;;;;27.83;18.40;;;;;;;;;;5065593;28;20506;-48
2023/05/10 08:03:44;;;;;;;39.90;22.80;;;;;;;;;;5059774;28;20479;-49
2023/05/10 08:06:11;;;;;;;40.03;22.90;;;;;;;;;;5060154;28;20473;-48
2023/05/10 08:08:37;;;;;;;39.13;23.97;;;;;;;;;;5059710;28;20449;-48
2023/05/10 08:11:03;;;;;;;40.83;21.10;;;;;;;;;;5058635;28;20449;-48
2023/05/10 08:13:29;;;;;;;45.07;23.37;;;;;;;;;;5060379;28;20417;-48
2023/05/10 08:15:55;;;;;;;37.33;20.90;;;;;;;;;;5056829;28;20468;-48
2023/05/10 08:18:21;;;;;;;37.90;21.40;;;;;;;;;;5059189;28;20416;-49
2023/05/10 08:20:47;;;;;;;37.17;22.90;;;;;;;;;;5059638;28;20432;-50
2023/05/10 08:23:13;;;;;;;48.40;24.40;;;;;;;;;;5062776;28;20411;-49
2023/05/10 08:25:39;;;;;;;31.37;19.80;;;;;;;;;;5061511;28;20413;-49
2023/05/10 08:28:05;;;;;;;34.63;19.07;;;;;;;;;;5063145;28;20390;-48
2023/05/10 08:30:31;;;;;;;32.23;17.47;;;;;;;;;;5059305;28;20394;-49
2023/05/10 08:32:57;;;;;;;27.40;16.10;;;;;;;;;;5054739;28;20911;-49
2023/05/10 08:35:24;;;;;;;29.23;16.53;;;;;;;;;;5062873;28;20546;-47
2023/05/10 08:37:50;;;;;;;31.00;15.97;;;;;;;;;;5059877;28;20409;-49
2023/05/10 08:40:16;;;;;;;26.53;15.43;;;;;;;;;;5061514;27;20436;-48
2023/05/10 08:42:45;;;;;;;24.90;15.70;;;;;;;;;;5054433;28;20409;-49
2023/05/10 08:45:11;;;;;;;28.93;14.97;;;;;;;;;;5060829;28;20403;-49
2023/05/10 08:47:38;;;;;;;25.60;15.33;;;;;;;;;;5058168;28;20383;-49
2023/05/10 08:50:04;;;;;;;27.93;16.10;;;;;;;;;;5059526;28;20395;-49
2023/05/10 08:52:30;;;;;;;29.40;16.20;;;;;;;;;;5061845;28;20385;-49
2023/05/10 08:54:57;;;;;;;27.70;15.73;;;;;;;;;;5057868;28;20462;-48
2023/05/10 08:57:23;;;;;;;27.63;14.50;;;;;;;;;;5059946;28;20415;-47
2023/05/10 08:59:49;;;;;;;24.07;14.10;;;;;;;;;;5059534;28;20393;-46
2023/05/10 09:02:15;;;;;;;24.23;14.40;;;;;;;;;;5071021;28;20393;-49
2023/05/10 09:04:41;;;;;;;31.57;14.00;;;;;;;;;;5069865;28;20906;-48
2023/05/10 09:07:07;;;;;;;24.80;14.30;;;;;;;;;;5071289;28;20539;-48
2023/05/10 09:09:34;;;;;;;24.40;13.37;;;;;;;;;;5071027;28;20899;-48
2023/05/10 09:12:00;;;;;;;32.40;15.63;;;;;;;;;;5050002;28;20470;-48
2023/05/10 09:14:27;;;;;;;20.60;11.80;;;;;;;;;;5050528;28;20425;-46
2023/05/10 09:16:54;;;;;;;22.77;12.30;;;;;;;;;;5050742;28;20458;-48
2023/05/10 09:19:20;;;;;;;18.13;10.63;;;;;;;;;;5050925;28;20481;-49
2023/05/10 09:21:45;;;;;;;17.70;11.30;;;;;;;;;;5051204;28;20430;-49
2023/05/10 09:24:12;;;;;;;18.80;10.27;;;;;;;;;;5051022;28;20994;-49
2023/05/10 09:26:47;;;;;;;15.27;10.47;;;;;;;;;;5050681;28;20412;-49
2023/05/10 09:29:14;;;;;;;13.87;10.27;;;;;;;;;;5050898;28;20804;-48
2023/05/10 09:31:47;;;;;;;14.23;8.50;;;;;;;;;;5050640;28;20404;-48
2023/05/10 09:34:17;;;;;;;14.07;8.20;;;;;;;;;;5046914;28;20441;-48
2023/05/10 09:36:57;;;;;;;11.00;8.37;;;;;;;;;;5039195;28;20465;-48
2023/05/10 09:39:32;;;;;;;11.30;7.50;;;;;;;;;;5030385;28;20499;-48
2023/05/10 09:41:59;;;;;;;17.63;11.50;;;;;;;;;;5039790;27;20473;-48
2023/05/10 09:44:26;;;;;;;12.60;8.20;;;;;;;;;;5049406;28;20821;-47
2023/05/10 09:46:55;;;;;;;13.90;9.27;;;;;;;;;;5050054;28;20409;-47
2023/05/10 09:49:21;;;;;;;14.73;9.17;;;;;;;;;;5047731;28;20539;-47
2023/05/10 09:51:47;;;;;;;17.37;8.90;;;;;;;;;;5049909;28;20440;-47
2023/05/10 09:54:15;;;;;;;18.03;8.37;;;;;;;;;;5049636;28;20936;-47
2023/05/10 09:56:41;;;;;;;13.53;8.43;;;;;;;;;;5048761;28;20463;-48
2023/05/10 09:59:08;;;;;;;12.83;8.70;;;;;;;;;;5049902;28;20759;-47
2023/05/10 10:01:35;;;;;;;15.10;9.37;;;;;;;;;;5049833;28;20454;-47
2023/05/10 10:04:03;;;;;;;14.70;9.27;;;;;;;;;;5049151;28;20923;-47
2023/05/10 10:06:29;;;;;;;14.80;9.47;;;;;;;;;;5049864;28;20956;-48
2023/05/10 10:08:56;;;;;;;18.60;9.50;;;;;;;;;;5047472;28;20432;-48
2023/05/10 10:11:22;;;;;;;11.70;8.93;;;;;;;;;;5049829;28;20398;-47
2023/05/10 10:13:48;;;;;;;19.90;9.97;;;;;;;;;;5049484;28;20764;-47
2023/05/10 10:16:13;;;;;;;17.87;9.13;;;;;;;;;;5049642;28;20463;-48
2023/05/10 10:18:40;;;;;;;17.70;10.90;;;;;;;;;;5042400;27;20432;-47
2023/05/10 10:21:08;;;;;;;15.43;10.33;;;;;;;;;;5104303;27;20444;-47
2023/05/10 10:23:35;;;;;;;19.30;11.63;;;;;;;;;;5154331;27;20416;-47
2023/05/10 10:26:02;;;;;;;17.47;10.80;;;;;;;;;;5154403;27;20407;-48
2023/05/10 10:28:35;;;;;;;20.43;10.87;;;;;;;;;;5154286;27;20412;-47
2023/05/10 10:31:02;;;;;;;20.17;12.37;;;;;;;;;;5154163;27;20396;-47
2023/05/10 10:33:28;;;;;;;18.40;10.40;;;;;;;;;;5141318;27;20423;-47
2023/05/10 10:35:56;;;;;;;27.47;12.93;;;;;;;;;;5049370;28;20458;-47
2023/05/10 10:38:22;;;;;;;26.23;14.97;;;;;;;;;;5049212;28;20404;-47
2023/05/10 10:40:49;;;;;;;25.40;16.37;;;;;;;;;;5049353;28;20503;-47
2023/05/10 10:43:27;;;;;;;34.70;20.27;;;;;;;;;;5048842;28;20479;-47
2023/05/10 10:46:13;;;;;;;51.40;17.93;;;;;;;;;;5053977;27;20435;-47
2023/05/10 10:48:39;;;;;;;31.70;16.40;;;;;;;;;;5047353;27;20425;-48
2023/05/10 10:51:05;;;;;;;24.90;14.27;;;;;;;;;;5056323;27;20428;-47
2023/05/10 10:53:32;;;;;;;20.80;12.70;;;;;;;;;;5062896;28;20923;-48
2023/05/10 10:56:09;;;;;;;26.30;13.73;;;;;;;;;;5059324;27;20463;-47
2023/05/10 10:58:35;;;;;;;20.70;10.60;;;;;;;;;;5063545;28;20409;-47
2023/05/10 11:01:15;;;;;;;21.33;11.17;;;;;;;;;;5055603;28;20428;-47
2023/05/10 11:03:41;;;;;;;26.57;12.63;;;;;;;;;;5048775;28;21057;-47
2023/05/10 11:06:08;;;;;;;18.40;11.43;;;;;;;;;;5056085;27;20431;-47
2023/05/10 11:08:35;;;;;;;20.27;11.60;;;;;;;;;;5054345;27;20485;-47
2023/05/10 11:11:06;;;;;;;19.27;10.50;;;;;;;;;;5056910;27;20522;-48
2023/05/10 11:13:32;;;;;;;17.70;10.80;;;;;;;;;;5062063;28;20425;-46
2023/05/10 11:15:59;;;;;;;14.73;10.20;;;;;;;;;;5068690;28;20454;-47
2023/05/10 11:18:29;;;;;;;22.60;12.47;;;;;;;;;;5068635;28;20399;-46
2023/05/10 11:20:59;;;;;;;14.10;10.50;;;;;;;;;;5064531;27;20955;-46
2023/05/10 11:23:30;;;;;;;17.00;11.57;;;;;;;;;;5060222;28;20452;-46
2023/05/10 11:25:56;;;;;;;19.27;11.67;;;;;;;;;;5068620;28;20454;-47
2023/05/10 11:28:23;;;;;;;21.20;13.57;;;;;;;;;;5046811;28;20461;-47
2023/05/10 11:30:49;;;;;;;20.53;14.13;;;;;;;;;;5056176;27;20465;-46
2023/05/10 11:33:16;;;;;;;21.10;11.87;;;;;;;;;;5060124;28;20840;-47
2023/05/10 11:35:42;;;;;;;19.10;12.50;;;;;;;;;;5068292;28;20535;-48
2023/05/10 11:38:11;;;;;;;17.43;12.97;;;;;;;;;;5063617;28;20439;-47
2023/05/10 11:40:38;;;;;;;21.93;13.10;;;;;;;;;;5054445;27;20516;-46
2023/05/10 11:43:05;;;;;;;27.23;15.70;;;;;;;;;;5056974;27;20427;-47
2023/05/10 11:45:34;;;;;;;18.37;12.47;;;;;;;;;;5062487;28;20438;-45
2023/05/10 11:48:00;;;;;;;32.20;13.60;;;;;;;;;;5068267;28;20448;-45
2023/05/10 11:50:26;;;;;;;16.47;12.47;;;;;;;;;;5061864;27;20430;-45
2023/05/10 11:52:52;;;;;;;24.77;15.03;;;;;;;;;;5054482;27;20446;-46
2023/05/10 11:55:18;;;;;;;15.27;10.87;;;;;;;;;;5047590;28;20520;-47
2023/05/10 11:57:45;;;;;;;22.43;11.97;;;;;;;;;;5048275;28;20445;-47
2023/05/10 12:00:12;;;;;;;19.50;10.30;;;;;;;;;;5048146;27;20426;-49
2023/05/10 12:02:38;;;;;;;27.73;12.03;;;;;;;;;;5056640;28;20751;-48
2023/05/10 12:05:05;;;;;;;18.40;11.23;;;;;;;;;;5066615;28;20435;-48
2023/05/10 12:07:31;;;;;;;19.20;10.70;;;;;;;;;;5068392;28;20406;-49
2023/05/10 12:10:05;;;;;;;19.27;10.93;;;;;;;;;;5056844;27;20438;-49
2023/05/10 12:12:38;;;;;;;24.00;9.53;;;;;;;;;;5049209;27;20782;-48
2023/05/10 12:15:06;;;;;;;22.13;11.10;;;;;;;;;;5066908;28;20451;-46
2023/05/10 12:17:32;;;;;;;17.43;10.80;;;;;;;;;;5040309;28;20422;-45
2023/05/10 12:20:14;;;;;;;23.03;10.40;;;;;;;;;;5055782;28;20476;-46
2023/05/10 12:22:40;;;;;;;23.53;10.70;;;;;;;;;;5061573;28;20431;-47
2023/05/10 12:25:08;;;;;;;18.27;12.07;;;;;;;;;;5070172;28;20425;-45
2023/05/10 12:27:34;;;;;;;18.70;11.43;;;;;;;;;;5064176;27;20425;-45
2023/05/10 12:30:00;;;;;;;18.40;10.40;;;;;;;;;;5060881;27;20767;-44
2023/05/10 12:32:55;;;;;;;24.23;12.20;;;;;;;;;;5071283;28;20760;-45
2023/05/10 12:35:23;;;;;;;11.47;9.70;;;;;;;;;;5060782;28;20876;-45
2023/05/10 12:37:49;;;;;;;18.73;9.30;;;;;;;;;;5048529;27;20434;-45
2023/05/10 12:40:15;;;;;;;13.67;9.67;;;;;;;;;;5050572;27;20764;-45
2023/05/10 12:42:41;;;;;;;17.37;10.50;;;;;;;;;;5050696;27;20454;-46
2023/05/10 12:45:08;;;;;;;11.67;8.30;;;;;;;;;;5051191;27;20418;-45
2023/05/10 12:47:35;;;;;;;13.57;9.00;;;;;;;;;;5039222;27;20464;-45
2023/05/10 12:50:02;;;;;;;16.00;8.73;;;;;;;;;;5050833;27;20486;-45
2023/05/10 12:52:28;;;;;;;16.93;11.13;;;;;;;;;;5050658;28;20488;-45
2023/05/10 12:54:54;;;;;;;19.70;9.43;;;;;;;;;;5051003;27;20494;-46
2023/05/10 12:57:21;;;;;;;16.43;9.50;;;;;;;;;;5050244;27;20962;-45
2023/05/10 12:59:47;;;;;;;10.53;8.60;;;;;;;;;;5051038;28;20429;-46
2023/05/10 13:02:14;;;;;;;15.43;10.87;;;;;;;;;;5049922;27;20436;-45
2023/05/10 13:04:40;;;;;;;12.87;8.73;;;;;;;;;;5050478;28;20482;-44
2023/05/10 13:07:06;;;;;;;14.33;7.73;;;;;;;;;;5050882;28;20405;-46
2023/05/10 13:09:32;;;;;;;12.60;8.43;;;;;;;;;;5048815;27;20463;-45
2023/05/10 13:11:58;;;;;;;12.67;9.10;;;;;;;;;;5050967;27;20983;-45
2023/05/10 13:14:25;;;;;;;15.43;9.60;;;;;;;;;;5050847;27;20793;-44
2023/05/10 13:16:51;;;;;;;12.30;10.13;;;;;;;;;;5050802;27;20456;-45
2023/05/10 13:19:17;;;;;;;15.40;10.97;;;;;;;;;;5050023;27;20428;-45
2023/05/10 13:21:46;;;;;;;15.03;11.90;;;;;;;;;;5050736;28;20443;-45
2023/05/10 13:24:16;;;;;;;12.30;10.90;;;;;;;;;;5042919;28;20487;-48
2023/05/10 13:26:42;;;;;;;19.60;10.50;;;;;;;;;;5032513;28;20410;-47
2023/05/10 13:29:08;;;;;;;11.50;10.30;;;;;;;;;;5041641;27;20436;-47
2023/05/10 13:31:35;;;;;;;14.87;12.00;;;;;;;;;;5049959;28;20726;-48
2023/05/10 13:34:02;;;;;;;12.57;10.27;;;;;;;;;;5052717;28;20442;-46
2023/05/10 13:36:32;;;;;;;14.03;10.17;;;;;;;;;;5051913;28;20980;-46
2023/05/10 13:39:07;;;;;;;12.47;10.20;;;;;;;;;;5051505;27;20770;-45
2023/05/10 13:41:33;;;;;;;12.37;8.13;;;;;;;;;;5053403;27;20430;-47
2023/05/10 13:44:00;;;;;;;7.70;7.00;;;;;;;;;;5052427;28;20931;-45
2023/05/10 13:46:26;;;;;;;9.37;7.70;;;;;;;;;;5052661;27;20402;-47
2023/05/10 13:48:52;;;;;;;9.57;7.17;;;;;;;;;;5049052;27;20437;-46
2023/05/10 13:51:18;;;;;;;9.97;7.23;;;;;;;;;;5048907;27;21084;-46
2023/05/10 13:53:44;;;;;;;13.67;5.90;;;;;;;;;;5050870;27;20566;-45
2023/05/10 13:56:10;;;;;;;7.37;5.93;;;;;;;;;;5047962;28;20509;-45
2023/05/10 13:58:36;;;;;;;6.73;5.50;;;;;;;;;;5049461;28;20511;-46
2023/05/10 14:01:02;;;;;;;10.07;5.67;;;;;;;;;;5050490;28;20397;-49
2023/05/10 14:03:28;;;;;;;15.83;9.67;;;;;;;;;;5048328;28;20412;-49
2023/05/10 14:05:54;;;;;;;7.17;5.43;;;;;;;;;;5051305;28;20397;-49
2023/05/10 14:08:20;;;;;;;8.93;5.10;;;;;;;;;;5051304;28;20429;-49
2023/05/10 14:10:46;;;;;;;6.53;5.87;;;;;;;;;;5051348;27;20406;-49
2023/05/10 14:13:12;;;;;;;12.97;8.50;;;;;;;;;;5050762;28;20470;-49
2023/05/10 14:15:38;;;;;;;6.80;5.17;;;;;;;;;;5051052;28;20949;-47
2023/05/10 14:18:04;;;;;;;9.90;4.77;;;;;;;;;;5050321;28;20436;-47
2023/05/10 14:20:31;;;;;;;7.20;4.50;;;;;;;;;;5050912;28;20482;-48
2023/05/10 14:22:57;;;;;;;5.30;4.60;;;;;;;;;;5049803;28;20429;-48